createdAt,value
2018-09-19T00:01:28.422Z,98050.00
2018-09-19T00:05:30.583Z,98041.00
2018-09-19T00:09:32.774Z,98045.00
2018-09-19T00:13:34.972Z,97990.00
2018-09-19T00:17:37.157Z,98045.00
2018-09-19T00:21:39.328Z,98049.00
2018-09-19T00:25:41.628Z,98061.00
2018-09-19T00:29:43.898Z,98051.00
2018-09-19T00:33:46.023Z,98055.00
2018-09-19T00:37:48.275Z,98061.00
2018-09-19T00:41:50.463Z,98064.00
2018-09-19T00:45:52.639Z,98062.00
2018-09-19T00:49:54.776Z,98065.00
2018-09-19T00:53:56.931Z,98063.00
2018-09-19T00:57:59.316Z,98068.00
2018-09-19T01:02:01.484Z,98069.00
2018-09-19T01:06:03.665Z,98070.00
2018-09-19T01:10:05.929Z,98082.00
2018-09-19T01:14:08.076Z,98084.00
2018-09-19T01:18:10.262Z,98081.00
2018-09-19T01:22:12.491Z,98082.00
2018-09-19T01:26:14.668Z,98043.00
2018-09-19T01:30:16.835Z,98096.00
2018-09-19T01:34:18.974Z,98100.00
2018-09-19T01:38:21.139Z,98103.00
2018-09-19T01:42:23.328Z,98110.00
2018-09-19T01:46:25.647Z,98107.00
2018-09-19T01:50:27.863Z,98109.00
2018-09-19T01:54:30.030Z,98110.00
2018-09-19T01:58:32.235Z,98113.00
2018-09-19T02:02:34.402Z,98112.00
2018-09-19T02:06:37.444Z,98114.00
2018-09-19T02:10:39.659Z,98118.00
2018-09-19T02:14:41.801Z,98121.00
2018-09-19T02:18:43.966Z,98120.00
2018-09-19T02:22:46.145Z,98117.00
2018-09-19T02:26:48.334Z,98116.00
2018-09-19T02:30:50.516Z,98121.00
2018-09-19T02:34:52.694Z,98113.00
2018-09-19T02:38:55.912Z,98121.00
2018-09-19T02:42:58.053Z,98122.00
2018-09-19T02:47:00.236Z,98119.00
2018-09-19T02:51:02.395Z,98118.00
2018-09-19T02:55:04.745Z,98118.00
2018-09-19T02:59:06.927Z,98120.00
2018-09-19T03:03:09.107Z,98125.00
2018-09-19T03:07:11.341Z,98121.00
2018-09-19T03:11:13.554Z,98122.00
2018-09-19T03:15:15.760Z,98124.00
2018-09-19T03:19:17.937Z,98120.00
2018-09-19T03:23:20.768Z,98121.00
2018-09-19T03:27:23.135Z,98128.00
2018-09-19T03:31:25.306Z,98132.00
2018-09-19T03:35:27.632Z,98127.00
2018-09-19T03:39:29.729Z,98129.00
2018-09-19T03:43:32.033Z,98130.00
2018-09-19T03:47:34.213Z,98130.00
2018-09-19T03:51:37.098Z,98136.00
2018-09-19T03:55:39.299Z,98134.00
2018-09-19T03:59:41.458Z,98137.00
2018-09-19T04:03:43.614Z,98148.00
2018-09-19T04:07:45.765Z,98145.00
2018-09-19T04:11:47.928Z,98153.00
2018-09-19T04:17:19.661Z,98149.00
2018-09-19T04:21:21.837Z,98153.00
2018-09-19T04:25:24.043Z,98164.00
2018-09-19T04:29:26.206Z,98165.00
2018-09-19T04:33:28.370Z,98163.00
2018-09-19T04:37:30.556Z,98172.00
2018-09-19T04:41:33.999Z,98170.00
2018-09-19T04:45:36.259Z,98174.00
2018-09-19T04:49:39.547Z,98177.00
2018-09-19T04:53:41.711Z,98184.00
2018-09-19T04:57:43.903Z,98188.00
2018-09-19T05:01:46.107Z,98175.00
2018-09-19T05:05:48.328Z,98178.00
2018-09-19T05:09:50.558Z,98184.00
2018-09-19T05:13:52.933Z,98193.00
2018-09-19T05:17:55.147Z,98184.00
2018-09-19T05:21:57.373Z,98194.00
2018-09-19T05:25:59.539Z,98188.00
2018-09-19T05:30:01.888Z,98198.00
2018-09-19T05:34:04.063Z,98208.00
2018-09-19T05:38:06.414Z,98195.00
2018-09-19T05:42:08.643Z,98198.00
2018-09-19T05:46:10.833Z,98204.00
2018-09-19T05:50:13.035Z,98189.00
2018-09-19T05:54:15.231Z,98198.00
2018-09-19T05:58:17.530Z,98205.00
2018-09-19T06:02:19.735Z,98206.00
2018-09-19T06:06:21.965Z,98208.00
2018-09-19T06:10:24.189Z,98216.00
2018-09-19T06:14:26.374Z,98220.00
2018-09-19T06:18:28.774Z,98221.00
2018-09-19T06:22:30.998Z,98209.00
2018-09-19T06:26:33.187Z,98213.00
2018-09-19T06:30:35.417Z,98210.00
2018-09-19T06:34:37.663Z,98208.00
2018-09-19T06:38:39.806Z,98212.00
2018-09-19T06:42:42.045Z,98214.00
2018-09-19T06:46:44.229Z,98214.00
2018-09-19T06:50:46.427Z,98213.00
2018-09-19T06:54:48.669Z,98217.00
2018-09-19T06:58:51.947Z,98206.00
2018-09-19T07:02:55.183Z,98217.00
2018-09-19T07:06:58.449Z,98215.00
2018-09-19T07:11:01.280Z,98217.00
2018-09-19T07:15:03.806Z,98228.00
2018-09-19T07:19:06.236Z,98225.00
2018-09-19T07:23:08.445Z,98230.00
2018-09-19T07:27:10.636Z,98230.00
2018-09-19T07:31:12.987Z,98234.00
2018-09-19T07:35:15.112Z,98233.00
2018-09-19T07:39:17.341Z,98242.00
2018-09-19T07:43:19.559Z,98244.00
2018-09-19T07:47:21.736Z,98248.00
2018-09-19T07:51:23.945Z,98255.00
2018-09-19T07:55:26.326Z,98265.00
2018-09-19T07:59:28.415Z,98268.00
2018-09-19T08:03:30.617Z,98268.00
2018-09-19T08:07:32.913Z,98267.00
2018-09-19T08:11:35.252Z,98275.00
2018-09-19T08:15:37.384Z,98266.00
2018-09-19T08:19:39.614Z,98261.00
2018-09-19T08:23:41.866Z,98268.00
2018-09-19T08:27:44.000Z,98264.00
2018-09-19T08:31:46.908Z,98264.00
2018-09-19T08:35:49.116Z,98265.00
2018-09-19T08:39:51.456Z,98271.00
2018-09-19T08:43:53.634Z,98268.00
2018-09-19T08:47:56.031Z,98268.00
2018-09-19T08:51:58.290Z,98267.00
2018-09-19T08:56:00.470Z,98265.00
2018-09-19T09:00:02.773Z,98262.00
2018-09-19T09:04:05.091Z,98274.00
2018-09-19T09:08:07.428Z,98267.00
2018-09-19T09:12:09.676Z,98282.00
2018-09-19T09:16:11.874Z,98282.00
2018-09-19T09:20:14.132Z,98281.00
2018-09-19T09:24:16.320Z,98281.00
2018-09-19T09:28:18.528Z,98274.00
2018-09-19T09:33:50.244Z,98274.00
2018-09-19T09:37:52.447Z,98284.00
2018-09-19T09:41:54.661Z,98283.00
2018-09-19T09:45:57.754Z,98281.00
2018-09-19T09:49:59.925Z,98290.00
2018-09-19T09:54:02.139Z,98283.00
2018-09-19T09:58:04.333Z,98273.00
2018-09-19T10:02:06.572Z,98279.00
2018-09-19T10:06:08.783Z,98272.00
2018-09-19T10:10:11.010Z,98282.00
2018-09-19T10:14:13.243Z,98279.00
2018-09-19T10:18:15.438Z,98275.00
2018-09-19T10:22:17.598Z,98288.00
2018-09-19T10:26:19.949Z,98271.00
2018-09-19T10:30:22.112Z,98273.00
2018-09-19T10:34:24.274Z,98268.00
2018-09-19T10:38:26.469Z,98272.00
2018-09-19T10:43:58.325Z,98285.00
2018-09-19T10:48:00.478Z,98269.00
2018-09-19T10:52:02.682Z,98264.00
2018-09-19T10:56:04.999Z,98260.00
2018-09-19T11:00:07.731Z,98247.00
2018-09-19T11:04:10.037Z,98247.00
2018-09-19T11:08:12.238Z,98254.00
2018-09-19T11:12:14.480Z,98251.00
2018-09-19T11:16:16.650Z,98239.00
2018-09-19T11:20:18.843Z,98239.00
2018-09-19T11:24:21.013Z,98252.00
2018-09-19T11:28:23.212Z,98241.00
2018-09-19T11:32:25.539Z,98254.00
2018-09-19T11:36:27.700Z,98248.00
2018-09-19T11:40:30.002Z,98240.00
2018-09-19T11:44:32.235Z,98241.00
2018-09-19T11:48:34.904Z,98242.00
2018-09-19T11:52:37.147Z,98237.00
2018-09-19T11:56:40.006Z,98239.00
2018-09-19T12:00:42.187Z,98232.00
2018-09-19T12:04:44.412Z,98229.00
2018-09-19T12:08:46.632Z,98226.00
2018-09-19T12:12:48.871Z,98229.00
2018-09-19T12:16:51.083Z,98226.00
2018-09-19T12:20:53.294Z,98222.00
2018-09-19T12:24:55.506Z,98215.00
2018-09-19T12:28:57.671Z,98204.00
2018-09-19T12:32:59.932Z,98207.00
2018-09-19T12:37:02.139Z,98208.00
2018-09-19T12:41:05.877Z,98206.00
2018-09-19T12:45:08.707Z,98211.00
2018-09-19T12:49:10.985Z,98220.00
2018-09-19T12:53:13.293Z,98205.00
2018-09-19T12:57:15.466Z,98196.00
2018-09-19T13:01:17.612Z,98209.00
2018-09-19T13:05:19.837Z,98195.00
2018-09-19T13:09:22.011Z,98199.00
2018-09-19T13:13:24.226Z,98201.00
2018-09-19T13:17:26.430Z,98196.00
2018-09-19T13:21:28.753Z,98196.00
2018-09-19T13:25:31.103Z,98192.00
2018-09-19T13:29:33.608Z,98195.00
2018-09-19T13:33:35.837Z,98190.00
2018-09-19T13:37:38.038Z,98191.00
2018-09-19T13:41:41.242Z,98188.00
2018-09-19T13:45:44.584Z,98181.00
2018-09-19T13:49:52.670Z,98184.00
2018-09-19T13:53:54.945Z,98175.00
2018-09-19T13:57:58.139Z,98178.00
2018-09-19T14:02:00.434Z,98171.00
2018-09-19T14:06:02.832Z,98172.00
2018-09-19T14:10:05.214Z,98172.00
2018-09-19T14:14:07.516Z,98161.00
2018-09-19T14:18:09.818Z,98160.00
2018-09-19T14:22:12.027Z,98160.00
2018-09-19T14:26:14.244Z,98140.00
2018-09-19T14:30:16.481Z,98135.00
2018-09-19T14:34:18.662Z,98132.00
2018-09-19T14:38:20.955Z,98129.00
2018-09-19T14:42:23.212Z,98141.00
2018-09-19T14:46:25.428Z,98126.00
2018-09-19T14:50:27.718Z,98137.00
2018-09-19T14:54:30.067Z,98134.00
2018-09-19T14:58:32.181Z,98138.00
2018-09-19T15:02:34.422Z,98134.00
2018-09-19T15:06:36.702Z,98138.00
2018-09-19T15:10:38.984Z,98132.00
2018-09-19T15:14:41.145Z,98147.00
2018-09-19T15:18:43.357Z,98148.00
2018-09-19T15:22:45.572Z,98145.00
2018-09-19T15:26:47.878Z,98145.00
2018-09-19T15:30:50.079Z,98131.00
2018-09-19T15:34:52.972Z,98143.00
2018-09-19T15:38:55.164Z,98141.00
2018-09-19T15:42:57.463Z,98128.00
2018-09-19T15:46:59.648Z,98139.00
2018-09-19T15:51:01.914Z,98133.00
2018-09-19T15:55:04.289Z,98138.00
2018-09-19T15:59:06.516Z,98138.00
2018-09-19T16:03:08.868Z,98134.00
2018-09-19T16:07:11.158Z,98143.00
2018-09-19T16:11:13.523Z,98139.00
2018-09-19T16:15:15.831Z,98135.00
2018-09-19T16:19:18.040Z,98124.00
2018-09-19T16:23:20.213Z,98133.00
2018-09-19T16:27:22.472Z,98126.00
2018-09-19T16:31:24.780Z,98126.00
2018-09-19T16:35:26.984Z,98129.00
2018-09-19T16:39:29.808Z,98127.00
2018-09-19T16:43:32.178Z,98128.00
2018-09-19T16:47:34.464Z,98131.00
2018-09-19T16:51:36.687Z,98133.00
2018-09-19T16:55:38.994Z,98138.00
2018-09-19T16:59:41.329Z,98133.00
2018-09-19T17:03:43.641Z,98138.00
2018-09-19T17:07:45.927Z,98145.00
2018-09-19T17:11:48.403Z,98137.00
2018-09-19T17:15:51.160Z,98142.00
2018-09-19T17:19:54.413Z,98133.00
2018-09-19T17:23:56.727Z,98140.00
2018-09-19T17:27:58.901Z,98148.00
2018-09-19T17:32:01.240Z,98145.00
2018-09-19T17:36:03.904Z,98144.00
2018-09-19T17:40:06.776Z,98148.00
2018-09-19T17:44:09.042Z,98156.00
2018-09-19T17:48:11.316Z,98159.00
2018-09-19T17:52:13.601Z,98164.00
2018-09-19T17:56:15.854Z,98169.00
2018-09-19T18:00:18.276Z,98171.00
2018-09-19T18:04:21.038Z,98175.00
2018-09-19T18:08:24.083Z,98177.00
2018-09-19T18:12:26.492Z,98173.00
2018-09-19T18:16:28.918Z,98182.00
2018-09-19T18:20:31.223Z,98186.00
2018-09-19T18:24:33.455Z,98184.00
2018-09-19T18:28:35.749Z,98188.00
2018-09-19T18:32:38.011Z,98194.00
2018-09-19T18:36:40.309Z,98189.00
2018-09-19T18:40:42.801Z,98194.00
2018-09-19T18:44:45.125Z,98196.00
2018-09-19T18:48:47.323Z,98210.00
2018-09-19T18:52:49.532Z,98212.00
2018-09-19T18:56:52.178Z,98207.00
2018-09-19T19:00:54.430Z,98213.00
2018-09-19T19:04:57.819Z,98207.00
2018-09-19T19:09:00.540Z,98222.00
2018-09-19T19:13:02.720Z,98217.00
2018-09-19T19:17:05.341Z,98214.00
2018-09-19T19:21:07.616Z,98216.00
2018-09-19T19:25:10.016Z,98221.00
2018-09-19T19:29:12.235Z,98218.00
2018-09-19T19:33:14.432Z,98218.00
2018-09-19T19:37:17.423Z,98221.00
2018-09-19T19:41:19.627Z,98226.00
2018-09-19T19:45:22.684Z,98222.00
2018-09-19T19:49:24.853Z,98218.00
2018-09-19T19:53:27.235Z,98225.00
2018-09-19T19:57:29.526Z,98232.00
2018-09-19T20:01:31.723Z,98225.00
2018-09-19T20:05:34.288Z,98229.00
2018-09-19T20:09:36.529Z,98237.00
2018-09-19T20:13:39.490Z,98241.00
2018-09-19T20:17:41.758Z,98233.00
2018-09-19T20:21:43.952Z,98244.00
2018-09-19T20:25:46.209Z,98239.00
2018-09-19T20:29:48.402Z,98238.00
2018-09-19T20:33:50.609Z,98247.00
2018-09-19T20:37:53.192Z,98249.00
2018-09-19T20:41:55.367Z,98250.00
2018-09-19T20:45:57.566Z,98254.00
2018-09-19T20:49:59.807Z,98258.00
2018-09-19T20:54:01.983Z,98263.00
2018-09-19T20:58:04.167Z,98261.00
2018-09-19T21:02:06.356Z,98263.00
2018-09-19T21:06:08.524Z,98258.00
2018-09-19T21:10:10.697Z,98255.00
2018-09-19T21:14:12.896Z,98268.00
2018-09-19T21:18:15.203Z,98274.00
2018-09-19T21:22:17.592Z,98279.00
2018-09-19T21:26:19.625Z,98281.00
2018-09-19T21:30:21.824Z,98284.00
2018-09-19T21:34:24.057Z,98285.00
2018-09-19T21:38:26.189Z,98291.00
2018-09-19T21:42:28.386Z,98290.00
2018-09-19T21:46:30.533Z,98297.00
2018-09-19T21:50:32.726Z,98289.00
2018-09-19T21:54:34.920Z,98293.00
2018-09-19T21:58:37.140Z,98285.00
2018-09-19T22:02:39.461Z,98285.00
2018-09-19T22:06:41.667Z,98294.00
2018-09-19T22:10:43.849Z,98297.00
2018-09-19T22:14:46.065Z,98290.00
2018-09-19T22:18:48.319Z,98292.00
2018-09-19T22:22:50.495Z,98285.00
2018-09-19T22:26:52.686Z,98293.00
2018-09-19T22:30:55.479Z,98289.00
2018-09-19T22:34:57.702Z,98296.00
2018-09-19T22:38:59.900Z,98289.00
2018-09-19T22:43:02.218Z,98289.00
2018-09-19T22:47:04.569Z,98281.00
2018-09-19T22:51:06.832Z,98282.00
2018-09-19T22:55:09.002Z,98278.00
2018-09-19T22:59:11.159Z,98268.00
2018-09-19T23:03:13.310Z,98280.00
2018-09-19T23:07:15.512Z,98284.00
2018-09-19T23:11:17.710Z,98273.00
2018-09-19T23:15:19.877Z,98272.00
2018-09-19T23:19:22.132Z,98268.00
2018-09-19T23:23:24.315Z,98272.00
2018-09-19T23:27:26.505Z,98279.00
2018-09-19T23:31:28.715Z,98273.00
2018-09-19T23:35:30.915Z,98273.00
2018-09-19T23:39:33.125Z,98267.00
2018-09-19T23:43:35.326Z,98269.00
2018-09-19T23:47:37.535Z,98262.00
2018-09-19T23:51:39.792Z,98260.00
2018-09-19T23:55:41.988Z,98264.00
2018-09-19T23:59:44.229Z,98253.00
